Tuesday, January 17, 2017, 3:53 AM EST

KOKV, Winchester Regional

Location: Winchester, VA, United States Lat: 39.15
Local Time: 3:53 AM EST ( 8:53 GMT) Lon: -78.15
Time Zone: US/Eastern Elev: 728 ft

Show me the last for .
Show Decoded

2017-01-17 03:35 METAR KOKV 170835Z AUTO 00000KT 5SM BR OVC004 02/01 A3020 RMK AO2 =
2017-01-17 03:15 METAR KOKV 170815Z AUTO 00000KT 7SM BKN004 OVC085 02/01 A3020 RMK AO2 =
2017-01-17 02:55 METAR KOKV 170755Z AUTO 00000KT 7SM SCT006 SCT070 OVC085 02/01 A3020 RMK AO2 =
2017-01-17 02:35 METAR KOKV 170735Z AUTO 00000KT 7SM BKN006 OVC070 02/01 A3021 RMK AO2 =
2017-01-17 02:15 METAR KOKV 170715Z AUTO 00000KT 7SM OVC006 02/01 A3021 RMK AO2 =
2017-01-17 01:55 METAR KOKV 170655Z AUTO 04003KT 7SM BKN006 OVC015 03/01 A3021 RMK AO2 =
2017-01-17 01:35 METAR KOKV 170635Z AUTO 01003KT 7SM OVC015 03/01 A3022 RMK AO2 =
2017-01-17 01:15 METAR KOKV 170615Z AUTO 00000KT 7SM OVC015 03/01 A3022 RMK AO2 =
2017-01-17 00:55 METAR KOKV 170555Z AUTO 00000KT 7SM SCT005 OVC013 03/02 A3022 RMK AO2 =
2017-01-17 00:35 METAR KOKV 170535Z AUTO 00000KT 7SM SCT005 OVC015 03/02 A3023 RMK AO2 =
2017-01-17 00:15 METAR KOKV 170515Z AUTO 00000KT 7SM SCT005 OVC015 03/02 A3024 RMK AO2 =
2017-01-16 23:55 METAR KOKV 170455Z AUTO 00000KT 7SM OVC015 03/03 A3024 RMK AO2 =
2017-01-16 23:35 METAR KOKV 170435Z AUTO 00000KT 7SM OVC015 03/03 A3025 RMK AO2 =
2017-01-16 23:15 METAR KOKV 170415Z AUTO 00000KT 7SM OVC015 04/03 A3026 RMK AO2 =
2017-01-16 22:55 METAR KOKV 170355Z AUTO 00000KT 7SM OVC015 04/03 A3027 RMK AO2 =
2017-01-16 22:35 METAR KOKV 170335Z AUTO 00000KT 10SM OVC015 04/03 A3027 RMK AO2 =
2017-01-16 22:15 METAR KOKV 170315Z AUTO 00000KT 10SM OVC015 04/03 A3027 RMK AO2 =
2017-01-16 21:55 METAR KOKV 170255Z AUTO 00000KT 10SM OVC015 04/03 A3028 RMK AO2 =
2017-01-16 21:35 METAR KOKV 170235Z AUTO 00000KT 10SM OVC015 04/03 A3028 RMK AO2 =
2017-01-16 21:15 METAR KOKV 170215Z AUTO 00000KT 10SM OVC015 04/02 A3029 RMK AO2 =
2017-01-16 20:55 METAR KOKV 170155Z AUTO 00000KT 10SM OVC015 04/02 A3029 RMK AO2 =
2017-01-16 20:35 METAR KOKV 170135Z AUTO 00000KT 10SM OVC017 04/02 A3030 RMK AO2 =
2017-01-16 20:15 METAR KOKV 170115Z AUTO 00000KT 10SM OVC017 04/02 A3030 RMK AO2 =
2017-01-16 19:55 METAR KOKV 170055Z AUTO 00000KT 10SM OVC017 04/02 A3030 RMK AO2 =
2017-01-16 19:35 METAR KOKV 170035Z AUTO 00000KT 10SM OVC019 04/02 A3029 RMK AO2 =
2017-01-16 19:15 METAR KOKV 170015Z AUTO 00000KT 10SM OVC019 04/02 A3030 RMK AO2 =
2017-01-16 18:55 METAR KOKV 162355Z AUTO 00000KT 10SM OVC019 04/02 A3030 RMK AO2 =
2017-01-16 18:35 METAR KOKV 162335Z AUTO 00000KT 10SM OVC021 04/02 A3030 RMK AO2 =
2017-01-16 18:15 METAR KOKV 162315Z AUTO 00000KT 10SM OVC021 04/02 A3030 RMK AO2 =
2017-01-16 17:55 METAR KOKV 162255Z AUTO 13003KT 10SM OVC023 04/02 A3031 RMK AO2 =
2017-01-16 17:35 METAR KOKV 162235Z AUTO 12003KT 10SM OVC023 04/02 A3031 RMK AO2 =
2017-01-16 17:15 METAR KOKV 162215Z AUTO 10004KT 10SM BKN025 OVC110 05/02 A3032 RMK AO2 =
2017-01-16 16:55 METAR KOKV 162155Z AUTO 11006KT 10SM SCT023 BKN090 OVC110 05/02 A3031 RMK AO2 =
2017-01-16 16:35 METAR KOKV 162135Z AUTO 12004KT 10SM SCT023 OVC090 06/02 A3031 RMK AO2 =
2017-01-16 16:15 METAR KOKV 162115Z AUTO 14003KT 10SM BKN023 BKN050 OVC090 06/02 A3032 RMK AO2 =
2017-01-16 15:55 METAR KOKV 162055Z AUTO 14005KT 10SM -RA SCT023 SCT050 OVC090 06/02 A3032 RMK
                 AO2 =
2017-01-16 15:35 METAR KOKV 162035Z AUTO 19005KT 10SM OVC090 06/01 A3032 RMK AO2 =
2017-01-16 15:15 METAR KOKV 162015Z AUTO 16005KT 10SM BKN090 06/01 A3031 RMK AO2 =
2017-01-16 14:55 METAR KOKV 161955Z AUTO 17006KT 10SM OVC100 06/01 A3031 RMK AO2 =
2017-01-16 14:35 METAR KOKV 161935Z AUTO 15004KT 10SM OVC100 06/01 A3031 RMK AO2 =
2017-01-16 14:15 METAR KOKV 161915Z AUTO 18003KT 10SM SCT023 OVC100 06/00 A3031 RMK AO2 =
2017-01-16 13:55 METAR KOKV 161855Z AUTO 17004KT 10SM SCT023 BKN100 06/00 A3032 RMK AO2 =
2017-01-16 13:35 METAR KOKV 161835Z AUTO 15003KT 10SM SCT023 SCT065 SCT110 06/00 A3033 RMK AO2 =
2017-01-16 13:15 METAR KOKV 161815Z AUTO 16003KT 10SM SCT023 BKN065 OVC110 06/00 A3034 RMK AO2 =
2017-01-16 12:55 METAR KOKV 161755Z AUTO 18004KT 10SM BKN023 OVC065 05/00 A3034 RMK AO2 =
2017-01-16 12:35 METAR KOKV 161735Z AUTO 00000KT 10SM BKN023 BKN065 OVC120 05/00 A3036 RMK AO2 =
2017-01-16 12:15 METAR KOKV 161715Z AUTO 17005KT 10SM BKN070 OVC095 04/M01 A3036 RMK AO2 =
2017-01-16 11:55 METAR KOKV 161655Z AUTO 00000KT 10SM BKN070 OVC095 03/M01 A3038 RMK AO2 =
2017-01-16 11:35 METAR KOKV 161635Z AUTO 00000KT 10SM SCT022 OVC070 03/M01 A3040 RMK AO2 =
2017-01-16 11:15 METAR KOKV 161615Z AUTO 00000KT 10SM BKN022 OVC070 02/M02 A3041 RMK AO2 =
2017-01-16 10:55 METAR KOKV 161555Z AUTO 00000KT 10SM OVC022 02/M02 A3042 RMK AO2 =
2017-01-16 10:35 METAR KOKV 161535Z AUTO 00000KT 10SM OVC020 02/M02 A3042 RMK AO2 =
2017-01-16 10:15 METAR KOKV 161515Z AUTO 00000KT 10SM OVC018 01/M02 A3044 RMK AO2 =
2017-01-16 09:55 METAR KOKV 161455Z AUTO 00000KT 10SM OVC018 01/M03 A3042 RMK AO2 =
2017-01-16 09:35 METAR KOKV 161435Z AUTO 00000KT 10SM OVC018 01/M03 A3042 RMK AO2 =
2017-01-16 09:15 METAR KOKV 161415Z AUTO 00000KT 10SM OVC018 01/M03 A3042 RMK AO2 =
2017-01-16 08:55 METAR KOKV 161355Z AUTO 00000KT 10SM OVC018 00/M03 A3042 RMK AO2 =
2017-01-16 08:35 METAR KOKV 161335Z AUTO 02003KT 10SM OVC020 00/M03 A3042 RMK AO2 =
2017-01-16 08:15 METAR KOKV 161315Z AUTO 00000KT 10SM OVC020 00/M03 A3042 RMK AO2 =
2017-01-16 07:55 METAR KOKV 161255Z AUTO 01004KT 10SM OVC020 00/M03 A3041 RMK AO2 =
2017-01-16 07:35 METAR KOKV 161235Z AUTO 01004KT 10SM OVC020 00/M03 A3041 RMK AO2 =
2017-01-16 07:15 METAR KOKV 161215Z AUTO 01003KT 10SM OVC020 00/M03 A3041 RMK AO2 =
2017-01-16 06:55 METAR KOKV 161155Z AUTO 00000KT 10SM OVC020 00/M03 A3041 RMK AO2 =
2017-01-16 06:35 METAR KOKV 161135Z AUTO 00000KT 10SM OVC020 01/M03 A3040 RMK AO2 =
2017-01-16 06:15 METAR KOKV 161115Z AUTO 00000KT 10SM OVC020 01/M03 A3040 RMK AO2 =
2017-01-16 05:55 METAR KOKV 161055Z AUTO 04003KT 10SM OVC020 01/M03 A3040 RMK AO2 =
2017-01-16 05:35 METAR KOKV 161035Z AUTO 00000KT 10SM OVC020 01/M03 A3040 RMK AO2 =
2017-01-16 05:15 METAR KOKV 161015Z AUTO 00000KT 10SM OVC020 01/M03 A3039 RMK AO2 =
2017-01-16 04:55 METAR KOKV 160955Z AUTO 00000KT 10SM OVC020 01/M03 A3039 RMK AO2 =
2017-01-16 04:35 METAR KOKV 160935Z AUTO 00000KT 10SM OVC020 01/M03 A3039 RMK AO2 =
2017-01-16 04:15 METAR KOKV 160915Z AUTO 00000KT 10SM OVC020 01/M04 A3039 RMK AO2 =
2017-01-16 03:55 METAR KOKV 160855Z AUTO 00000KT 10SM OVC022 01/M03 A3039 RMK AO2 =

Support USWX by starting your Amazon purchase here.